sensor_id;sensor_type;location;lat;lon;timestamp;pressure;altitude;pressure_sealevel;temperature;humidity
50011;BME280;35899;50.352;19.390;2023-03-04T00:10:31;97751.89;;;-0.68;95.35
50011;BME280;35899;50.352;19.390;2023-03-04T00:12:58;97748.67;;;-0.69;95.36
50011;BME280;35899;50.352;19.390;2023-03-04T00:15:24;97749.36;;;-0.69;95.40
50011;BME280;35899;50.352;19.390;2023-03-04T00:17:51;97747.82;;;-0.68;95.50
50011;BME280;35899;50.352;19.390;2023-03-04T00:20:17;97739.64;;;-0.68;95.68
50011;BME280;35899;50.352;19.390;2023-03-04T00:22:44;97740.16;;;-0.68;95.74
50011;BME280;35899;50.352;19.390;2023-03-04T00:25:10;97742.69;;;-0.68;95.76
50011;BME280;35899;50.352;19.390;2023-03-04T00:27:37;97738.80;;;-0.68;95.68
50011;BME280;35899;50.352;19.390;2023-03-04T00:30:04;97739.13;;;-0.68;95.71
50011;BME280;35899;50.352;19.390;2023-03-04T00:32:31;97731.63;;;-0.67;95.82
50011;BME280;35899;50.352;19.390;2023-03-04T00:34:58;97730.94;;;-0.67;95.92
50011;BME280;35899;50.352;19.390;2023-03-04T00:37:24;97721.76;;;-0.66;96.03
50011;BME280;35899;50.352;19.390;2023-03-04T00:39:50;97721.66;;;-0.68;95.92
50011;BME280;35899;50.352;19.390;2023-03-04T00:42:17;97717.49;;;-0.72;96.02
50011;BME280;35899;50.352;19.390;2023-03-04T00:44:46;97715.91;;;-0.75;96.10
50011;BME280;35899;50.352;19.390;2023-03-04T00:47:13;97705.94;;;-0.77;96.13
50011;BME280;35899;50.352;19.390;2023-03-04T00:49:39;97701.71;;;-0.79;96.11
50011;BME280;35899;50.352;19.390;2023-03-04T00:52:09;97690.52;;;-0.80;96.28
50011;BME280;35899;50.352;19.390;2023-03-04T00:54:36;97690.69;;;-0.80;96.36
50011;BME280;35899;50.352;19.390;2023-03-04T00:57:02;97677.78;;;-0.79;96.35
50011;BME280;35899;50.352;19.390;2023-03-04T00:59:31;97671.67;;;-0.80;96.50
50011;BME280;35899;50.352;19.390;2023-03-04T01:01:59;97666.92;;;-0.80;96.76
50011;BME280;35899;50.352;19.390;2023-03-04T01:04:25;97667.11;;;-0.81;96.74
50011;BME280;35899;50.352;19.390;2023-03-04T01:06:53;97665.37;;;-0.79;96.60
50011;BME280;35899;50.352;19.390;2023-03-04T01:09:19;97660.92;;;-0.78;96.61
50011;BME280;35899;50.352;19.390;2023-03-04T01:11:46;97662.92;;;-0.77;96.78
50011;BME280;35899;50.352;19.390;2023-03-04T01:14:12;97660.36;;;-0.76;96.86
50011;BME280;35899;50.352;19.390;2023-03-04T01:16:39;97655.10;;;-0.76;96.91
50011;BME280;35899;50.352;19.390;2023-03-04T01:19:05;97650.16;;;-0.76;97.05
50011;BME280;35899;50.352;19.390;2023-03-04T01:21:32;97641.52;;;-0.76;97.00
50011;BME280;35899;50.352;19.390;2023-03-04T01:23:58;97638.27;;;-0.76;96.95
50011;BME280;35899;50.352;19.390;2023-03-04T01:26:25;97637.38;;;-0.74;97.07
50011;BME280;35899;50.352;19.390;2023-03-04T01:28:52;97635.30;;;-0.73;97.16
50011;BME280;35899;50.352;19.390;2023-03-04T01:31:22;97635.45;;;-0.73;97.08
50011;BME280;35899;50.352;19.390;2023-03-04T01:33:50;97631.52;;;-0.72;97.04
50011;BME280;35899;50.352;19.390;2023-03-04T01:36:17;97629.62;;;-0.71;97.29
50011;BME280;35899;50.352;19.390;2023-03-04T01:38:43;97627.91;;;-0.70;97.33
50011;BME280;35899;50.352;19.390;2023-03-04T01:41:10;97623.98;;;-0.70;97.29
50011;BME280;35899;50.352;19.390;2023-03-04T01:43:37;97624.95;;;-0.69;97.35
50011;BME280;35899;50.352;19.390;2023-03-04T01:46:04;97623.59;;;-0.68;97.25
50011;BME280;35899;50.352;19.390;2023-03-04T01:48:36;97622.37;;;-0.68;97.32
50011;BME280;35899;50.352;19.390;2023-03-04T01:51:04;97616.59;;;-0.67;97.39
50011;BME280;35899;50.352;19.390;2023-03-04T01:53:31;97612.14;;;-0.66;97.34
50011;BME280;35899;50.352;19.390;2023-03-04T01:56:04;97610.59;;;-0.65;97.50
50011;BME280;35899;50.352;19.390;2023-03-04T01:58:42;97612.62;;;-0.65;97.65
50011;BME280;35899;50.352;19.390;2023-03-04T02:01:11;97604.85;;;-0.66;97.70
50011;BME280;35899;50.352;19.390;2023-03-04T02:03:40;97605.36;;;-0.66;97.72
50011;BME280;35899;50.352;19.390;2023-03-04T02:08:53;97601.09;;;-0.66;97.75
50011;BME280;35899;50.352;19.390;2023-03-04T02:11:20;97603.66;;;-0.66;97.82
50011;BME280;35899;50.352;19.390;2023-03-04T02:13:47;97595.04;;;-0.68;97.91
50011;BME280;35899;50.352;19.390;2023-03-04T02:16:13;97592.17;;;-0.68;97.88
50011;BME280;35899;50.352;19.390;2023-03-04T02:18:41;97591.69;;;-0.70;97.87
50011;BME280;35899;50.352;19.390;2023-03-04T02:21:13;97585.58;;;-0.69;97.93
50011;BME280;35899;50.352;19.390;2023-03-04T02:23:45;97582.20;;;-0.70;98.14
50011;BME280;35899;50.352;19.390;2023-03-04T02:26:28;97581.52;;;-0.70;98.17
50011;BME280;35899;50.352;19.390;2023-03-04T02:28:56;97579.98;;;-0.70;98.23
50011;BME280;35899;50.352;19.390;2023-03-04T02:31:41;97575.41;;;-0.71;98.11
50011;BME280;35899;50.352;19.390;2023-03-04T02:34:12;97565.40;;;-0.71;98.14
50011;BME280;35899;50.352;19.390;2023-03-04T02:36:40;97559.95;;;-0.71;98.02
50011;BME280;35899;50.352;19.390;2023-03-04T02:41:41;97560.85;;;-0.73;98.11
50011;BME280;35899;50.352;19.390;2023-03-04T02:44:23;97552.06;;;-0.74;98.13
50011;BME280;35899;50.352;19.390;2023-03-04T02:46:52;97549.23;;;-0.76;98.06
50011;BME280;35899;50.352;19.390;2023-03-04T02:49:19;97551.04;;;-0.80;98.12
50011;BME280;35899;50.352;19.390;2023-03-04T02:51:50;97546.56;;;-0.83;97.82
50011;BME280;35899;50.352;19.390;2023-03-04T02:54:21;97540.36;;;-0.86;97.98
50011;BME280;35899;50.352;19.390;2023-03-04T02:56:49;97537.70;;;-0.88;97.96
50011;BME280;35899;50.352;19.390;2023-03-04T02:59:17;97538.02;;;-0.87;98.02
50011;BME280;35899;50.352;19.390;2023-03-04T03:01:44;97537.96;;;-0.85;98.05
50011;BME280;35899;50.352;19.390;2023-03-04T03:04:11;97536.60;;;-0.85;98.04
50011;BME280;35899;50.352;19.390;2023-03-04T03:06:38;97539.48;;;-0.85;97.97
50011;BME280;35899;50.352;19.390;2023-03-04T03:09:05;97540.15;;;-0.85;97.87
50011;BME280;35899;50.352;19.390;2023-03-04T03:11:32;97542.18;;;-0.84;98.07
50011;BME280;35899;50.352;19.390;2023-03-04T03:13:59;97542.31;;;-0.83;97.99
50011;BME280;35899;50.352;19.390;2023-03-04T03:16:25;97543.02;;;-0.84;98.01
50011;BME280;35899;50.352;19.390;2023-03-04T03:18:52;97542.17;;;-0.84;98.01
50011;BME280;35899;50.352;19.390;2023-03-04T03:21:19;97540.84;;;-0.85;97.86
50011;BME280;35899;50.352;19.390;2023-03-04T03:23:46;97547.73;;;-0.88;97.96
50011;BME280;35899;50.352;19.390;2023-03-04T03:26:13;97546.64;;;-0.91;97.99
50011;BME280;35899;50.352;19.390;2023-03-04T03:28:39;97543.36;;;-0.95;97.90
50011;BME280;35899;50.352;19.390;2023-03-04T03:31:06;97542.01;;;-0.95;98.34
50011;BME280;35899;50.352;19.390;2023-03-04T03:33:32;97538.30;;;-0.96;98.34
50011;BME280;35899;50.352;19.390;2023-03-04T03:35:59;97543.96;;;-0.99;98.41
50011;BME280;35899;50.352;19.390;2023-03-04T03:38:26;97537.71;;;-1.00;98.28
50011;BME280;35899;50.352;19.390;2023-03-04T03:40:53;97533.11;;;-0.99;98.33
50011;BME280;35899;50.352;19.390;2023-03-04T03:43:19;97534.79;;;-0.99;98.57
50011;BME280;35899;50.352;19.390;2023-03-04T03:45:46;97528.18;;;-0.99;98.71
50011;BME280;35899;50.352;19.390;2023-03-04T03:48:15;97531.80;;;-1.00;98.68
50011;BME280;35899;50.352;19.390;2023-03-04T03:50:41;97529.77;;;-1.01;98.78
50011;BME280;35899;50.352;19.390;2023-03-04T03:53:08;97530.62;;;-1.01;98.66
50011;BME280;35899;50.352;19.390;2023-03-04T03:55:34;97532.14;;;-1.01;98.69
50011;BME280;35899;50.352;19.390;2023-03-04T03:58:01;97533.51;;;-1.01;98.54
50011;BME280;35899;50.352;19.390;2023-03-04T04:00:27;97533.83;;;-1.00;98.72
50011;BME280;35899;50.352;19.390;2023-03-04T04:02:54;97536.73;;;-1.01;98.76
50011;BME280;35899;50.352;19.390;2023-03-04T04:05:21;97534.00;;;-1.00;98.57
50011;BME280;35899;50.352;19.390;2023-03-04T04:07:48;97524.83;;;-1.00;98.57
50011;BME280;35899;50.352;19.390;2023-03-04T04:10:17;97516.52;;;-1.01;98.61
50011;BME280;35899;50.352;19.390;2023-03-04T04:12:44;97524.75;;;-1.03;98.55
50011;BME280;35899;50.352;19.390;2023-03-04T04:15:11;97523.98;;;-1.06;98.34
50011;BME280;35899;50.352;19.390;2023-03-04T04:17:38;97523.17;;;-1.07;98.45
50011;BME280;35899;50.352;19.390;2023-03-04T04:20:06;97520.70;;;-1.09;98.44
50011;BME280;35899;50.352;19.390;2023-03-04T04:22:33;97520.59;;;-1.12;98.35
50011;BME280;35899;50.352;19.390;2023-03-04T04:24:59;97519.79;;;-1.13;98.48
50011;BME280;35899;50.352;19.390;2023-03-04T04:27:26;97512.21;;;-1.15;98.40
50011;BME280;35899;50.352;19.390;2023-03-04T04:29:52;97514.81;;;-1.17;98.49
50011;BME280;35899;50.352;19.390;2023-03-04T04:32:19;97515.67;;;-1.17;98.39
50011;BME280;35899;50.352;19.390;2023-03-04T04:34:45;97517.56;;;-1.18;98.44
50011;BME280;35899;50.352;19.390;2023-03-04T04:37:12;97517.51;;;-1.16;98.43
50011;BME280;35899;50.352;19.390;2023-03-04T04:39:38;97517.02;;;-1.17;98.58
50011;BME280;35899;50.352;19.390;2023-03-04T04:42:05;97519.23;;;-1.18;98.61
50011;BME280;35899;50.352;19.390;2023-03-04T04:44:31;97517.90;;;-1.17;98.64
50011;BME280;35899;50.352;19.390;2023-03-04T04:46:58;97515.35;;;-1.17;98.47
50011;BME280;35899;50.352;19.390;2023-03-04T04:49:24;97512.41;;;-1.16;98.71
50011;BME280;35899;50.352;19.390;2023-03-04T04:51:51;97515.96;;;-1.16;98.59
50011;BME280;35899;50.352;19.390;2023-03-04T04:54:17;97517.16;;;-1.16;98.64
50011;BME280;35899;50.352;19.390;2023-03-04T04:56:44;97513.92;;;-1.16;98.71
50011;BME280;35899;50.352;19.390;2023-03-04T04:59:15;97513.46;;;-1.18;98.67
50011;BME280;35899;50.352;19.390;2023-03-04T05:01:42;97509.23;;;-1.18;98.92
50011;BME280;35899;50.352;19.390;2023-03-04T05:04:08;97509.38;;;-1.17;98.99
50011;BME280;35899;50.352;19.390;2023-03-04T05:06:40;97509.76;;;-1.19;98.90
50011;BME280;35899;50.352;19.390;2023-03-04T05:09:07;97507.20;;;-1.19;99.06
50011;BME280;35899;50.352;19.390;2023-03-04T05:11:33;97497.56;;;-1.20;99.08
50011;BME280;35899;50.352;19.390;2023-03-04T05:14:00;97500.29;;;-1.21;99.15
50011;BME280;35899;50.352;19.390;2023-03-04T05:16:27;97499.46;;;-1.21;99.15
50011;BME280;35899;50.352;19.390;2023-03-04T05:18:53;97492.65;;;-1.20;99.17
50011;BME280;35899;50.352;19.390;2023-03-04T05:21:23;97490.65;;;-1.22;99.25
50011;BME280;35899;50.352;19.390;2023-03-04T05:23:50;97492.02;;;-1.22;99.38
50011;BME280;35899;50.352;19.390;2023-03-04T05:26:16;97485.26;;;-1.23;99.58
50011;BME280;35899;50.352;19.390;2023-03-04T05:28:43;97481.25;;;-1.25;99.34
50011;BME280;35899;50.352;19.390;2023-03-04T05:31:10;97471.74;;;-1.25;99.43
50011;BME280;35899;50.352;19.390;2023-03-04T05:33:37;97472.41;;;-1.25;99.68
50011;BME280;35899;50.352;19.390;2023-03-04T05:36:04;97469.88;;;-1.25;99.49
50011;BME280;35899;50.352;19.390;2023-03-04T05:38:31;97471.75;;;-1.25;99.55
50011;BME280;35899;50.352;19.390;2023-03-04T05:41:00;97471.90;;;-1.25;99.69
50011;BME280;35899;50.352;19.390;2023-03-04T05:43:27;97465.77;;;-1.24;99.59
50011;BME280;35899;50.352;19.390;2023-03-04T05:45:53;97471.66;;;-1.22;99.58
50011;BME280;35899;50.352;19.390;2023-03-04T05:48:27;97469.76;;;-1.21;99.45
50011;BME280;35899;50.352;19.390;2023-03-04T05:50:58;97474.20;;;-1.22;99.45
50011;BME280;35899;50.352;19.390;2023-03-04T05:53:25;97466.02;;;-1.21;99.25
50011;BME280;35899;50.352;19.390;2023-03-04T05:55:55;97465.14;;;-1.20;99.30
50011;BME280;35899;50.352;19.390;2023-03-04T05:58:24;97457.79;;;-1.18;98.96
50011;BME280;35899;50.352;19.390;2023-03-04T06:00:51;97454.16;;;-1.16;99.21
50011;BME280;35899;50.352;19.390;2023-03-04T06:03:21;97448.29;;;-1.13;99.02
50011;BME280;35899;50.352;19.390;2023-03-04T06:05:47;97449.77;;;-1.11;98.70
50011;BME280;35899;50.352;19.390;2023-03-04T06:08:14;97443.08;;;-1.09;98.64
50011;BME280;35899;50.352;19.390;2023-03-04T06:10:40;97449.64;;;-1.07;98.37
50011;BME280;35899;50.352;19.390;2023-03-04T06:13:07;97449.38;;;-1.04;98.41
50011;BME280;35899;50.352;19.390;2023-03-04T06:15:34;97450.48;;;-1.01;98.28
50011;BME280;35899;50.352;19.390;2023-03-04T06:18:01;97444.10;;;-0.98;98.09
50011;BME280;35899;50.352;19.390;2023-03-04T06:20:30;97451.54;;;-0.97;98.04
50011;BME280;35899;50.352;19.390;2023-03-04T06:22:57;97455.52;;;-0.94;98.01
50011;BME280;35899;50.352;19.390;2023-03-04T06:25:23;97452.73;;;-0.92;98.00
50011;BME280;35899;50.352;19.390;2023-03-04T06:27:50;97456.90;;;-0.90;98.03
50011;BME280;35899;50.352;19.390;2023-03-04T06:30:17;97457.67;;;-0.87;98.24
50011;BME280;35899;50.352;19.390;2023-03-04T06:32:46;97462.02;;;-0.85;98.13
50011;BME280;35899;50.352;19.390;2023-03-04T06:35:13;97474.34;;;-0.83;98.15
50011;BME280;35899;50.352;19.390;2023-03-04T06:37:41;97478.28;;;-0.83;98.01
50011;BME280;35899;50.352;19.390;2023-03-04T06:40:08;97473.48;;;-0.82;97.86
50011;BME280;35899;50.352;19.390;2023-03-04T06:42:36;97475.66;;;-0.81;97.69
50011;BME280;35899;50.352;19.390;2023-03-04T06:45:03;97485.48;;;-0.81;97.63
50011;BME280;35899;50.352;19.390;2023-03-04T06:47:30;97491.36;;;-0.78;97.49
50011;BME280;35899;50.352;19.390;2023-03-04T06:49:57;97487.75;;;-0.76;97.27
50011;BME280;35899;50.352;19.390;2023-03-04T06:52:23;97489.71;;;-0.74;97.04
50011;BME280;35899;50.352;19.390;2023-03-04T06:54:50;97492.88;;;-0.72;96.85
50011;BME280;35899;50.352;19.390;2023-03-04T06:57:16;97494.73;;;-0.72;96.64
50011;BME280;35899;50.352;19.390;2023-03-04T06:59:43;97501.70;;;-0.72;96.48
50011;BME280;35899;50.352;19.390;2023-03-04T07:02:10;97503.64;;;-0.69;96.51
50011;BME280;35899;50.352;19.390;2023-03-04T07:04:37;97500.52;;;-0.66;96.35
50011;BME280;35899;50.352;19.390;2023-03-04T07:07:04;97501.88;;;-0.67;95.92
50011;BME280;35899;50.352;19.390;2023-03-04T07:09:31;97502.70;;;-0.66;95.91
50011;BME280;35899;50.352;19.390;2023-03-04T07:11:57;97503.18;;;-0.65;95.99
50011;BME280;35899;50.352;19.390;2023-03-04T07:14:24;97504.64;;;-0.63;95.59
50011;BME280;35899;50.352;19.390;2023-03-04T07:16:50;97496.13;;;-0.62;95.52
50011;BME280;35899;50.352;19.390;2023-03-04T07:19:17;97503.95;;;-0.63;95.44
50011;BME280;35899;50.352;19.390;2023-03-04T07:21:43;97501.18;;;-0.61;95.32
50011;BME280;35899;50.352;19.390;2023-03-04T07:24:09;97499.98;;;-0.60;95.39
50011;BME280;35899;50.352;19.390;2023-03-04T07:26:36;97499.75;;;-0.58;95.34
50011;BME280;35899;50.352;19.390;2023-03-04T07:29:03;97502.55;;;-0.55;95.52
50011;BME280;35899;50.352;19.390;2023-03-04T07:31:30;97497.84;;;-0.52;95.38
50011;BME280;35899;50.352;19.390;2023-03-04T07:34:00;97495.55;;;-0.50;95.02
50011;BME280;35899;50.352;19.390;2023-03-04T07:36:29;97496.55;;;-0.49;94.90
50011;BME280;35899;50.352;19.390;2023-03-04T07:38:55;97504.36;;;-0.49;94.87
50011;BME280;35899;50.352;19.390;2023-03-04T07:41:23;97504.48;;;-0.47;94.92
50011;BME280;35899;50.352;19.390;2023-03-04T07:43:50;97503.90;;;-0.45;94.87
50011;BME280;35899;50.352;19.390;2023-03-04T07:46:17;97502.77;;;-0.42;94.75
50011;BME280;35899;50.352;19.390;2023-03-04T07:48:44;97503.38;;;-0.39;94.38
50011;BME280;35899;50.352;19.390;2023-03-04T07:51:20;97497.86;;;-0.37;94.36
50011;BME280;35899;50.352;19.390;2023-03-04T07:53:50;97502.45;;;-0.37;94.14
50011;BME280;35899;50.352;19.390;2023-03-04T07:56:19;97499.90;;;-0.37;93.82
50011;BME280;35899;50.352;19.390;2023-03-04T07:58:46;97506.02;;;-0.37;93.71
50011;BME280;35899;50.352;19.390;2023-03-04T08:01:13;97502.45;;;-0.37;93.66
50011;BME280;35899;50.352;19.390;2023-03-04T08:03:40;97502.55;;;-0.35;93.76
50011;BME280;35899;50.352;19.390;2023-03-04T08:06:12;97499.27;;;-0.33;93.69
50011;BME280;35899;50.352;19.390;2023-03-04T08:08:39;97501.95;;;-0.32;93.41
50011;BME280;35899;50.352;19.390;2023-03-04T08:11:06;97506.85;;;-0.31;93.52
50011;BME280;35899;50.352;19.390;2023-03-04T08:13:32;97507.84;;;-0.30;93.28
50011;BME280;35899;50.352;19.390;2023-03-04T08:16:00;97510.13;;;-0.27;93.46
50011;BME280;35899;50.352;19.390;2023-03-04T08:18:27;97504.45;;;-0.26;93.11
50011;BME280;35899;50.352;19.390;2023-03-04T08:20:53;97504.26;;;-0.25;92.81
50011;BME280;35899;50.352;19.390;2023-03-04T08:23:20;97502.15;;;-0.23;92.57
50011;BME280;35899;50.352;19.390;2023-03-04T08:25:46;97501.51;;;-0.24;92.27
50011;BME280;35899;50.352;19.390;2023-03-04T08:28:13;97500.84;;;-0.24;92.01
50011;BME280;35899;50.352;19.390;2023-03-04T08:30:40;97502.80;;;-0.22;92.20
50011;BME280;35899;50.352;19.390;2023-03-04T08:33:07;97500.81;;;-0.18;92.18
50011;BME280;35899;50.352;19.390;2023-03-04T08:35:38;97505.33;;;-0.16;91.61
50011;BME280;35899;50.352;19.390;2023-03-04T08:38:05;97501.83;;;-0.13;91.95
50011;BME280;35899;50.352;19.390;2023-03-04T08:40:32;97503.02;;;-0.09;91.94
50011;BME280;35899;50.352;19.390;2023-03-04T08:43:02;97508.90;;;-0.06;91.74
50011;BME280;35899;50.352;19.390;2023-03-04T08:45:28;97504.05;;;-0.03;91.81
50011;BME280;35899;50.352;19.390;2023-03-04T08:47:55;97508.81;;;0.02;91.91
50011;BME280;35899;50.352;19.390;2023-03-04T08:50:21;97511.39;;;0.06;91.54
50011;BME280;35899;50.352;19.390;2023-03-04T08:52:52;97506.56;;;0.08;91.24
50011;BME280;35899;50.352;19.390;2023-03-04T08:55:18;97507.90;;;0.08;91.28
50011;BME280;35899;50.352;19.390;2023-03-04T08:57:44;97510.34;;;0.11;91.01
50011;BME280;35899;50.352;19.390;2023-03-04T09:00:11;97515.54;;;0.14;91.07
50011;BME280;35899;50.352;19.390;2023-03-04T09:02:38;97507.83;;;0.15;90.73
50011;BME280;35899;50.352;19.390;2023-03-04T09:05:04;97509.84;;;0.16;90.63
50011;BME280;35899;50.352;19.390;2023-03-04T09:07:31;97502.13;;;0.17;90.66
50011;BME280;35899;50.352;19.390;2023-03-04T09:09:57;97507.08;;;0.17;90.49
50011;BME280;35899;50.352;19.390;2023-03-04T09:12:24;97507.63;;;0.16;90.08
50011;BME280;35899;50.352;19.390;2023-03-04T09:14:51;97495.98;;;0.13;89.92
50011;BME280;35899;50.352;19.390;2023-03-04T09:17:34;97503.64;;;0.13;89.97
50011;BME280;35899;50.352;19.390;2023-03-04T09:20:01;97498.89;;;0.13;90.05
50011;BME280;35899;50.352;19.390;2023-03-04T09:22:30;97495.11;;;0.14;90.29
50011;BME280;35899;50.352;19.390;2023-03-04T09:24:57;97500.83;;;0.16;90.34
50011;BME280;35899;50.352;19.390;2023-03-04T09:27:26;97495.75;;;0.20;90.45
50011;BME280;35899;50.352;19.390;2023-03-04T09:29:52;97499.58;;;0.22;90.44
50011;BME280;35899;50.352;19.390;2023-03-04T09:32:49;97491.41;;;0.22;90.05
50011;BME280;35899;50.352;19.390;2023-03-04T09:35:23;97493.46;;;0.22;90.14
50011;BME280;35899;50.352;19.390;2023-03-04T09:38:19;97491.20;;;0.23;89.92
50011;BME280;35899;50.352;19.390;2023-03-04T09:40:46;97487.75;;;0.25;90.06
50011;BME280;35899;50.352;19.390;2023-03-04T09:43:23;97490.77;;;0.26;89.86
50011;BME280;35899;50.352;19.390;2023-03-04T09:45:54;97489.33;;;0.28;90.00
50011;BME280;35899;50.352;19.390;2023-03-04T09:49:01;97491.09;;;0.31;89.96
50011;BME280;35899;50.352;19.390;2023-03-04T10:00:38;97489.14;;;0.33;89.78
50011;BME280;35899;50.352;19.390;2023-03-04T10:05:33;97485.83;;;0.41;89.67
50011;BME280;35899;50.352;19.390;2023-03-04T10:08:24;97486.56;;;0.44;89.47
50011;BME280;35899;50.352;19.390;2023-03-04T10:10:52;97482.89;;;0.46;89.62
50011;BME280;35899;50.352;19.390;2023-03-04T10:14:07;97481.14;;;0.52;89.70
50011;BME280;35899;50.352;19.390;2023-03-04T10:16:10;97479.67;;;0.60;89.31
50011;BME280;35899;50.352;19.390;2023-03-04T10:18:52;97474.26;;;0.68;89.49
50011;BME280;35899;50.352;19.390;2023-03-04T10:21:29;97470.13;;;0.78;89.03
50011;BME280;35899;50.352;19.390;2023-03-04T10:23:59;97466.44;;;0.86;88.92
50011;BME280;35899;50.352;19.390;2023-03-04T10:26:28;97463.09;;;0.89;88.68
50011;BME280;35899;50.352;19.390;2023-03-04T10:28:59;97460.96;;;0.90;88.52
50011;BME280;35899;50.352;19.390;2023-03-04T10:33:55;97455.79;;;0.97;89.08
50011;BME280;35899;50.352;19.390;2023-03-04T10:41:25;97448.95;;;0.97;88.70
50011;BME280;35899;50.352;19.390;2023-03-04T10:46:30;97447.81;;;0.96;88.85
50011;BME280;35899;50.352;19.390;2023-03-04T10:48:58;97448.59;;;0.97;89.07
50011;BME280;35899;50.352;19.390;2023-03-04T11:16:02;97423.99;;;1.21;89.26
50011;BME280;35899;50.352;19.390;2023-03-04T11:18:57;97421.80;;;1.24;89.31
50011;BME280;35899;50.352;19.390;2023-03-04T11:22:01;97419.41;;;1.24;89.22
50011;BME280;35899;50.352;19.390;2023-03-04T11:25:07;97418.34;;;1.22;89.31
50011;BME280;35899;50.352;19.390;2023-03-04T11:30:41;97423.48;;;1.12;89.35
50011;BME280;35899;50.352;19.390;2023-03-04T11:39:46;97414.73;;;0.96;89.62
50011;BME280;35899;50.352;19.390;2023-03-04T11:43:11;97402.10;;;0.93;89.78
50011;BME280;35899;50.352;19.390;2023-03-04T12:44:26;97361.73;;;1.13;90.98
50011;BME280;35899;50.352;19.390;2023-03-04T12:50:19;97365.59;;;1.11;90.81
50011;BME280;35899;50.352;19.390;2023-03-04T12:53:11;97363.95;;;1.09;91.14
50011;BME280;35899;50.352;19.390;2023-03-04T12:55:49;97353.90;;;1.09;91.25
50011;BME280;35899;50.352;19.390;2023-03-04T12:58:29;97353.40;;;1.09;91.46
50011;BME280;35899;50.352;19.390;2023-03-04T13:03:50;97355.02;;;1.03;91.53
50011;BME280;35899;50.352;19.390;2023-03-04T13:08:55;97347.21;;;1.06;92.08
50011;BME280;35899;50.352;19.390;2023-03-04T13:21:23;97339.02;;;1.03;92.46
50011;BME280;35899;50.352;19.390;2023-03-04T13:23:51;97337.41;;;1.04;92.74
50011;BME280;35899;50.352;19.390;2023-03-04T13:26:30;97337.18;;;1.06;92.78
50011;BME280;35899;50.352;19.390;2023-03-04T13:29:28;97339.69;;;1.07;92.96
50011;BME280;35899;50.352;19.390;2023-03-04T13:32:13;97334.05;;;1.07;93.14
50011;BME280;35899;50.352;19.390;2023-03-04T13:36:06;97332.86;;;1.07;93.42
50011;BME280;35899;50.352;19.390;2023-03-04T13:38:12;97333.86;;;1.07;93.48
50011;BME280;35899;50.352;19.390;2023-03-04T13:41:05;97334.58;;;1.07;93.56
50011;BME280;35899;50.352;19.390;2023-03-04T13:51:47;97333.11;;;0.97;94.13
50011;BME280;35899;50.352;19.390;2023-03-04T13:54:28;97332.36;;;0.94;94.54
50011;BME280;35899;50.352;19.390;2023-03-04T13:59:32;97322.06;;;0.92;94.59
50011;BME280;35899;50.352;19.390;2023-03-04T14:02:10;97326.08;;;0.94;94.97
50011;BME280;35899;50.352;19.390;2023-03-04T14:04:46;97320.91;;;0.95;95.21
50011;BME280;35899;50.352;19.390;2023-03-04T14:07:26;97322.98;;;0.95;95.39
50011;BME280;35899;50.352;19.390;2023-03-04T14:09:59;97322.73;;;0.97;95.49
50011;BME280;35899;50.352;19.390;2023-03-04T14:12:31;97318.45;;;1.01;95.51
50011;BME280;35899;50.352;19.390;2023-03-04T14:15:04;97317.77;;;1.06;95.90
50011;BME280;35899;50.352;19.390;2023-03-04T14:17:33;97312.89;;;1.12;95.86
50011;BME280;35899;50.352;19.390;2023-03-04T14:20:04;97312.64;;;1.18;95.87
50011;BME280;35899;50.352;19.390;2023-03-04T14:22:32;97310.16;;;1.21;95.79
50011;BME280;35899;50.352;19.390;2023-03-04T14:25:14;97306.10;;;1.24;95.94
50011;BME280;35899;50.352;19.390;2023-03-04T14:27:45;97308.34;;;1.27;95.96
50011;BME280;35899;50.352;19.390;2023-03-04T14:30:19;97305.33;;;1.30;95.96
50011;BME280;35899;50.352;19.390;2023-03-04T14:33:01;97306.10;;;1.32;96.08
50011;BME280;35899;50.352;19.390;2023-03-04T14:35:32;97304.94;;;1.31;95.93
50011;BME280;35899;50.352;19.390;2023-03-04T14:40:31;97308.44;;;1.29;96.09
50011;BME280;35899;50.352;19.390;2023-03-04T14:43:00;97303.23;;;1.27;96.29
50011;BME280;35899;50.352;19.390;2023-03-04T14:45:29;97308.95;;;1.25;96.39
50011;BME280;35899;50.352;19.390;2023-03-04T14:48:00;97305.65;;;1.23;96.41
50011;BME280;35899;50.352;19.390;2023-03-04T14:50:31;97304.40;;;1.23;96.57
50011;BME280;35899;50.352;19.390;2023-03-04T14:55:36;97298.31;;;1.27;96.62
50011;BME280;35899;50.352;19.390;2023-03-04T14:58:15;97296.64;;;1.25;96.62
50011;BME280;35899;50.352;19.390;2023-03-04T15:00:45;97293.81;;;1.24;96.88
50011;BME280;35899;50.352;19.390;2023-03-04T15:05:41;97295.46;;;1.25;97.10
50011;BME280;35899;50.352;19.390;2023-03-04T15:08:21;97291.96;;;1.28;97.33
50011;BME280;35899;50.352;19.390;2023-03-04T15:10:56;97286.98;;;1.28;97.24
50011;BME280;35899;50.352;19.390;2023-03-04T15:16:26;97278.61;;;1.33;97.30
50011;BME280;35899;50.352;19.390;2023-03-04T15:19:03;97269.35;;;1.38;97.20
50011;BME280;35899;50.352;19.390;2023-03-04T15:23:59;97274.27;;;1.50;96.87
50011;BME280;35899;50.352;19.390;2023-03-04T15:26:26;97271.95;;;1.53;96.81
50011;BME280;35899;50.352;19.390;2023-03-04T15:28:53;97269.13;;;1.54;96.70
50011;BME280;35899;50.352;19.390;2023-03-04T15:31:21;97267.94;;;1.54;96.70
50011;BME280;35899;50.352;19.390;2023-03-04T15:33:50;97270.48;;;1.55;96.50
50011;BME280;35899;50.352;19.390;2023-03-04T15:36:18;97272.76;;;1.53;96.39
50011;BME280;35899;50.352;19.390;2023-03-04T15:38:47;97271.25;;;1.53;96.43
50011;BME280;35899;50.352;19.390;2023-03-04T15:41:24;97270.70;;;1.53;96.40
50011;BME280;35899;50.352;19.390;2023-03-04T15:43:52;97265.95;;;1.53;96.27
50011;BME280;35899;50.352;19.390;2023-03-04T15:46:19;97266.31;;;1.53;96.20
50011;BME280;35899;50.352;19.390;2023-03-04T15:48:46;97264.98;;;1.52;96.03
50011;BME280;35899;50.352;19.390;2023-03-04T15:51:14;97262.65;;;1.50;95.99
50011;BME280;35899;50.352;19.390;2023-03-04T15:53:45;97266.61;;;1.50;95.98
50011;BME280;35899;50.352;19.390;2023-03-04T15:56:16;97272.95;;;1.49;95.96
50011;BME280;35899;50.352;19.390;2023-03-04T15:58:44;97280.50;;;1.48;95.79